createdAt,value
2018-01-28T00:01:03.159Z,5.59
2018-01-28T00:06:03.913Z,5.49
2018-01-28T00:11:03.163Z,5.49
2018-01-28T00:16:03.066Z,5.59
2018-01-28T00:21:03.170Z,5.49
2018-01-28T00:26:04.010Z,5.49
2018-01-28T00:31:03.721Z,5.39
2018-01-28T00:36:04.698Z,5.39
2018-01-28T00:41:03.657Z,5.29
2018-01-28T00:46:03.372Z,5.49
2018-01-28T00:51:03.402Z,5.49
2018-01-28T00:56:03.488Z,5.49
2018-01-28T01:01:03.184Z,5.39
2018-01-28T01:06:03.875Z,5.39
2018-01-28T01:11:03.012Z,5.39
2018-01-28T01:16:03.783Z,5.39
2018-01-28T01:21:03.600Z,5.39
2018-01-28T01:26:03.472Z,5.49
2018-01-28T01:31:03.479Z,5.39
2018-01-28T01:36:03.285Z,5.49
2018-01-28T01:41:03.404Z,5.49
2018-01-28T01:46:03.296Z,5.49
2018-01-28T01:51:03.387Z,5.49
2018-01-28T01:56:03.014Z,5.59
2018-01-28T02:01:03.941Z,5.49
2018-01-28T02:06:03.626Z,5.49
2018-01-28T02:11:03.829Z,5.59
2018-01-28T02:16:03.588Z,5.59
2018-01-28T02:21:03.442Z,5.59
2018-01-28T02:26:03.224Z,5.59
2018-01-28T02:31:03.943Z,5.59
2018-01-28T02:36:03.740Z,5.59
2018-01-28T02:41:03.849Z,5.59
2018-01-28T02:46:03.819Z,5.69
2018-01-28T02:51:03.350Z,5.69
2018-01-28T02:56:03.095Z,5.59
2018-01-28T03:01:03.820Z,5.69
2018-01-28T03:06:03.564Z,5.69
2018-01-28T03:11:03.782Z,5.69
2018-01-28T03:16:03.523Z,5.69
2018-01-28T03:21:03.375Z,5.79
2018-01-28T03:26:03.074Z,5.79
2018-01-28T03:31:03.811Z,5.79
2018-01-28T03:36:03.554Z,5.79
2018-01-28T03:41:03.749Z,5.79
2018-01-28T03:46:03.489Z,5.79
2018-01-28T03:51:03.183Z,5.89
2018-01-28T03:56:02.986Z,5.89
2018-01-28T04:01:03.731Z,5.89
2018-01-28T04:06:03.483Z,5.89
2018-01-28T04:11:03.604Z,5.99
2018-01-28T04:16:03.407Z,5.89
2018-01-28T04:21:03.182Z,5.99
2018-01-28T04:26:03.906Z,5.99
2018-01-28T04:31:03.597Z,5.99
2018-01-28T04:36:03.320Z,5.99
2018-01-28T04:41:03.506Z,6.09
2018-01-28T04:46:03.210Z,6.09
2018-01-28T04:51:02.968Z,6.09
2018-01-28T04:56:03.722Z,6.09
2018-01-28T05:01:03.427Z,6.09
2018-01-28T05:06:03.348Z,6.09
2018-01-28T05:11:03.610Z,6.09
2018-01-28T05:16:03.300Z,6.19
2018-01-28T05:21:03.165Z,6.19
2018-01-28T05:26:04.227Z,6.19
2018-01-28T05:31:03.832Z,6.19
2018-01-28T05:36:03.524Z,6.29
2018-01-28T05:41:03.688Z,6.29
2018-01-28T05:46:03.464Z,6.29
2018-01-28T05:51:03.710Z,6.29
2018-01-28T05:56:03.475Z,6.39
2018-01-28T06:01:03.213Z,6.39
2018-01-28T06:06:02.985Z,6.39
2018-01-28T06:11:03.165Z,6.39
2018-01-28T06:16:03.920Z,6.39
2018-01-28T06:21:03.793Z,6.39
2018-01-28T06:26:03.493Z,6.39
2018-01-28T06:31:03.263Z,6.39
2018-01-28T06:36:03.060Z,6.49
2018-01-28T06:41:03.152Z,6.39
2018-01-28T06:46:03.915Z,6.49
2018-01-28T06:51:03.641Z,6.49
2018-01-28T06:56:03.411Z,6.49
2018-01-28T07:01:03.164Z,6.49
2018-01-28T07:06:03.915Z,6.49
2018-01-28T07:11:03.044Z,6.59
2018-01-28T07:16:03.860Z,6.59
2018-01-28T07:21:03.739Z,6.59
2018-01-28T07:26:03.543Z,6.59
2018-01-28T07:31:03.318Z,6.59
2018-01-28T07:36:03.053Z,6.69
2018-01-28T07:41:03.179Z,6.69
2018-01-28T07:46:03.034Z,6.69
2018-01-28T07:51:03.756Z,6.79
2018-01-28T07:56:03.550Z,6.79
2018-01-28T08:01:03.311Z,6.79
2018-01-28T08:06:03.068Z,6.89
2018-01-28T08:11:03.216Z,6.89
2018-01-28T08:16:03.933Z,6.89
2018-01-28T08:21:03.840Z,6.89
2018-01-28T08:26:03.613Z,6.89
2018-01-28T08:31:03.347Z,6.99
2018-01-28T08:36:03.519Z,7.09
2018-01-28T08:41:03.662Z,7.09
2018-01-28T08:46:03.414Z,7.09
2018-01-28T08:51:03.183Z,7.09
2018-01-28T08:56:03.899Z,7.09
2018-01-28T09:01:03.651Z,7.09
2018-01-28T09:06:03.492Z,7.09
2018-01-28T09:11:03.666Z,7.09
2018-01-28T09:16:03.411Z,7.09
2018-01-28T09:21:03.225Z,7.09
2018-01-28T09:26:03.947Z,7.09
2018-01-28T09:31:03.685Z,7.09
2018-01-28T09:36:03.482Z,7.09
2018-01-28T09:41:03.607Z,7.39
2018-01-28T09:46:03.343Z,7.39
2018-01-28T09:51:03.113Z,7.39
2018-01-28T09:56:03.905Z,7.39
2018-01-28T10:01:03.657Z,7.39
2018-01-28T10:06:03.478Z,7.39
2018-01-28T10:11:03.629Z,7.39
2018-01-28T10:16:03.327Z,7.69
2018-01-28T10:21:03.175Z,7.69
2018-01-28T10:26:03.139Z,7.69
2018-01-28T10:31:03.840Z,7.69
2018-01-28T10:36:03.657Z,7.69
2018-01-28T10:41:03.690Z,7.69
2018-01-28T10:46:03.453Z,7.69
2018-01-28T10:51:03.109Z,7.69
2018-01-28T10:56:03.903Z,7.69
2018-01-28T11:01:03.668Z,7.99
2018-01-28T11:06:03.500Z,7.99
2018-01-28T11:11:03.850Z,8.09
2018-01-28T11:16:03.875Z,8.19
2018-01-28T11:21:03.712Z,8.29
2018-01-28T11:26:03.493Z,8.39
2018-01-28T11:31:03.683Z,8.39
2018-01-28T11:36:03.515Z,8.49
2018-01-28T11:41:03.808Z,8.49
2018-01-28T11:46:03.611Z,8.59
2018-01-28T11:51:03.473Z,8.69
2018-01-28T11:56:03.043Z,8.69
2018-01-28T12:01:03.809Z,8.59
2018-01-28T12:06:03.595Z,8.79
2018-01-28T12:11:03.654Z,8.69
2018-01-28T12:16:03.902Z,8.69
2018-01-28T12:21:03.429Z,8.69
2018-01-28T12:26:04.133Z,8.79
2018-01-28T12:31:03.646Z,8.89
2018-01-28T12:36:03.514Z,8.99
2018-01-28T12:41:03.542Z,8.99
2018-01-28T12:46:03.199Z,8.99
2018-01-28T12:51:03.411Z,9.09
2018-01-28T12:56:04.254Z,8.99
2018-01-28T13:01:03.863Z,8.99
2018-01-28T13:06:03.533Z,9.09
2018-01-28T13:11:03.746Z,9.19
2018-01-28T13:16:03.565Z,9.09
2018-01-28T13:21:03.310Z,8.99
2018-01-28T13:26:03.106Z,9.09
2018-01-28T13:31:03.871Z,9.19
2018-01-28T13:36:03.561Z,9.19
2018-01-28T13:41:03.932Z,9.29
2018-01-28T13:46:03.698Z,9.19
2018-01-28T13:51:03.539Z,9.29
2018-01-28T13:56:03.301Z,9.29
2018-01-28T14:01:03.104Z,9.19
2018-01-28T14:06:03.883Z,9.19
2018-01-28T14:11:03.068Z,9.29
2018-01-28T14:16:03.754Z,9.29
2018-01-28T14:21:03.608Z,9.29
2018-01-28T14:26:03.366Z,9.19
2018-01-28T14:31:03.132Z,9.29
2018-01-28T14:36:03.776Z,9.19
2018-01-28T14:41:03.988Z,9.29
2018-01-28T14:46:03.717Z,9.29
2018-01-28T14:51:03.843Z,9.19
2018-01-28T14:56:03.997Z,9.29
2018-01-28T15:01:04.671Z,9.29
2018-01-28T15:06:03.658Z,9.19
2018-01-28T15:11:04.246Z,9.19
2018-01-28T15:16:04.413Z,9.19
2018-01-28T15:21:03.830Z,9.19
2018-01-28T15:26:03.275Z,9.29
2018-01-28T15:31:04.129Z,9.29
2018-01-28T15:36:04.038Z,9.29
2018-01-28T15:41:03.902Z,9.39
2018-01-28T15:46:04.627Z,9.39
2018-01-28T15:51:04.206Z,9.29
2018-01-28T15:56:04.640Z,9.39
2018-01-28T16:01:03.902Z,9.29
2018-01-28T16:06:04.625Z,9.29
2018-01-28T16:11:04.322Z,9.29
2018-01-28T16:16:04.136Z,9.39
2018-01-28T16:21:04.734Z,9.29
2018-01-28T16:26:04.618Z,9.29
2018-01-28T16:31:04.343Z,9.39
2018-01-28T16:36:04.669Z,9.49
2018-01-28T16:41:04.849Z,9.39
2018-01-28T16:46:04.305Z,9.39
2018-01-28T16:51:04.620Z,9.39
2018-01-28T16:56:04.279Z,9.49
2018-01-28T17:01:04.789Z,9.49
2018-01-28T17:06:04.444Z,9.49
2018-01-28T17:11:04.348Z,9.49
2018-01-28T17:16:04.141Z,9.59
2018-01-28T17:21:04.744Z,9.59
2018-01-28T17:26:04.155Z,9.59
2018-01-28T17:31:04.873Z,9.59
2018-01-28T17:36:03.961Z,9.69
2018-01-28T17:41:04.221Z,9.49
2018-01-28T17:46:05.138Z,9.59
2018-01-28T17:51:04.067Z,9.59
2018-01-28T17:56:04.411Z,9.59
2018-01-28T18:01:04.374Z,9.59
2018-01-28T18:06:04.880Z,9.59
2018-01-28T18:11:04.975Z,9.59
2018-01-28T18:16:05.051Z,9.69
2018-01-28T18:21:04.914Z,9.59
2018-01-28T18:26:04.706Z,9.59
2018-01-28T18:31:04.505Z,9.59
2018-01-28T18:36:04.250Z,9.49
2018-01-28T18:41:03.923Z,9.59
2018-01-28T18:46:04.731Z,9.59
2018-01-28T18:51:04.531Z,9.59
2018-01-28T18:56:04.382Z,9.59
2018-01-28T19:01:05.159Z,9.59
2018-01-28T19:06:04.744Z,9.59
2018-01-28T19:11:04.967Z,9.59
2018-01-28T19:16:04.839Z,9.59
2018-01-28T19:21:04.686Z,9.59
2018-01-28T19:26:04.501Z,9.59
2018-01-28T19:31:04.336Z,9.59
2018-01-28T19:36:05.179Z,9.59
2018-01-28T19:41:04.367Z,9.59
2018-01-28T19:46:04.680Z,9.59
2018-01-28T19:51:09.659Z,9.69
2018-01-28T19:56:04.708Z,9.69
2018-01-28T20:01:04.423Z,9.59
2018-01-28T20:06:05.241Z,9.69
2018-01-28T20:11:04.379Z,9.59
2018-01-28T20:16:05.250Z,9.69
2018-01-28T20:21:05.159Z,9.69
2018-01-28T20:26:04.791Z,9.59
2018-01-28T20:31:04.641Z,9.59
2018-01-28T20:36:04.813Z,9.59
2018-01-28T20:41:04.730Z,9.69
2018-01-28T20:46:04.487Z,9.59
2018-01-28T20:51:05.187Z,9.59
2018-01-28T20:56:04.979Z,9.59
2018-01-28T21:01:04.737Z,9.69
2018-01-28T21:06:04.545Z,9.59
2018-01-28T21:11:04.257Z,9.59
2018-01-28T21:16:05.091Z,9.59
2018-01-28T21:21:04.929Z,9.79
2018-01-28T21:26:04.675Z,9.59
2018-01-28T21:31:04.367Z,9.59
2018-01-28T21:36:05.053Z,9.69
2018-01-28T21:41:04.637Z,9.69
2018-01-28T21:46:04.652Z,9.59
2018-01-28T21:51:04.241Z,9.69
2018-01-28T21:56:03.200Z,9.59
2018-01-28T22:01:03.936Z,9.59
2018-01-28T22:06:03.962Z,9.59
2018-01-28T22:11:03.173Z,9.59
2018-01-28T22:16:03.951Z,9.69
2018-01-28T22:21:03.782Z,9.69
2018-01-28T22:26:03.533Z,9.59
2018-01-28T22:31:03.347Z,9.59
2018-01-28T22:36:03.460Z,9.69
2018-01-28T22:41:05.064Z,9.59
2018-01-28T22:46:03.474Z,9.59
2018-01-28T22:51:04.717Z,9.69
2018-01-28T22:56:04.997Z,9.59
2018-01-28T23:01:04.386Z,9.59
2018-01-28T23:06:04.270Z,9.59
2018-01-28T23:11:04.432Z,9.59
2018-01-28T23:16:03.822Z,9.59
2018-01-28T23:21:03.783Z,9.59
2018-01-28T23:26:04.707Z,9.59
2018-01-28T23:31:04.713Z,9.49
2018-01-28T23:36:04.769Z,9.59
2018-01-28T23:41:10.091Z,9.49
2018-01-28T23:46:04.964Z,9.49
2018-01-28T23:51:04.191Z,9.49
2018-01-28T23:56:04.130Z,9.49
